WetterOnline ( https://www.wetteronline.ch )

Wetter aktuell Weilheim

Aktuelles Wetter: Hohenpeißenberg (986m)

6-stündlich | Neueste Meldungen
Ortszeit Temperatur Wetter
Sa, 24.08. 8:00 14.6° C bedeckt
Sa, 24.08. 2:00 15.0° C wolkig
Fr, 23.08. 20:00 15.9° C bedeckt
Fr, 23.08. 14:00 16.0° C bewölkt
Fr, 23.08. 8:00 11.9° C Nebel
Fr, 23.08. 2:00 11.4° C wolkenlos
Do, 22.08. 20:00 12.8° C bedeckt
Do, 22.08. 14:00 11.7° C Nebel
Ortszeit Temperatur Wetter
Sa, 24.08. 10:30 15.4° C bewölkt
Sa, 24.08. 10:20 15.4° C bewölkt
Sa, 24.08. 10:10 15.6° C bewölkt
Sa, 24.08. 10:00 14.8° C bedeckt
Sa, 24.08. 9:50 14.8° C bedeckt
Sa, 24.08. 9:40 15.2° C bedeckt
Sa, 24.08. 9:30 14.5° C bedeckt
Sa, 24.08. 9:00 14.3° C bedeckt
Sa, 24.08. 8:30 14.8° C bedeckt
Sa, 24.08. 8:00 14.6° C bedeckt
Sa, 24.08. 7:30 14.1° C bedeckt
Ortszeit Relative Feuchte Sichtweite
Sa, 24.08. 8:00 100% <100 m
Sa, 24.08. 2:00 96% 5.0 km
Fr, 23.08. 20:00 93% 11 km
Fr, 23.08. 14:00 86% 19 km
Fr, 23.08. 8:00 100% 0.3 km
Fr, 23.08. 2:00 100% 2.6 km
Do, 22.08. 20:00 94% 18 km
Do, 22.08. 14:00 99% 0.6 km
Ortszeit Relative Feuchte Sichtweite
Sa, 24.08. 10:30 95% 0.7 km
Sa, 24.08. 10:20 95% -
Sa, 24.08. 10:10 97% -
Sa, 24.08. 10:00 99% <100 m
Sa, 24.08. 9:50 99% -
Sa, 24.08. 9:40 99% -
Sa, 24.08. 9:30 99% <100 m
Sa, 24.08. 9:00 100% <100 m
Sa, 24.08. 8:30 99% <100 m
Sa, 24.08. 8:00 100% <100 m
Sa, 24.08. 7:30 100% -
Ortszeit Niederschlagsmenge Niederschlagsart
Sa, 24.08. 8:00 0.0 l/m2 in 12 Std. -
Sa, 24.08. 2:00 0.0 l/m2 in 6 Std. -
Fr, 23.08. 20:00 0.0 l/m2 in 12 Std. -
Fr, 23.08. 14:00 0.0 l/m2 in 6 Std. -
Fr, 23.08. 8:00 0.0 l/m2 in 12 Std. -
Fr, 23.08. 2:00 0.0 l/m2 in 6 Std. -
Do, 22.08. 20:00 0.0 l/m2 in 12 Std. -
Do, 22.08. 14:00 0.1 l/m2 in 6 Std. Sprühregen
Ortszeit Niederschlagsmenge Niederschlagsart
Sa, 24.08. 10:30 0.0 l/m2 in 1 Std. -
Sa, 24.08. 10:20 keine Meldung -
Sa, 24.08. 10:10 keine Meldung -
Sa, 24.08. 10:00 0.0 l/m2 in 1 Std. -
Sa, 24.08. 9:50 keine Meldung -
Sa, 24.08. 9:40 keine Meldung -
Sa, 24.08. 9:30 0.0 l/m2 in 1 Std. -
Sa, 24.08. 9:00 0.0 l/m2 in 1 Std. -
Sa, 24.08. 8:30 0.0 l/m2 in 1 Std. -
Sa, 24.08. 8:00 0.0 l/m2 in 1 Std. -
Sa, 24.08. 7:30 0.0 l/m2 in 1 Std. -
Ortszeit Stärke Spitze Richtung
km/h Bft. km/h Grad Sektor
Sa, 24.08. 8:00 4 1 18 60° NO
Sa, 24.08. 2:00 11 2 22 70° O
Fr, 23.08. 20:00 13 3 24 40° NO
Fr, 23.08. 14:00 11 2 29 50° NO
Fr, 23.08. 8:00 11 2 25 70° O
Fr, 23.08. 2:00 11 2 18 150° SO
Do, 22.08. 20:00 7 2 18 50° NO
Do, 22.08. 14:00 9 2 17 50° NO
Ortszeit Stärke Spitze Richtung
km/h Bft. km/h Grad Sektor
Sa, 24.08. 10:30 4 1 11 320° NW
Sa, 24.08. 10:20 4 1 - 320° NW
Sa, 24.08. 10:10 4 1 - 290° W
Sa, 24.08. 10:00 4 1 11 240° SW
Sa, 24.08. 9:50 4 1 - 240° SW
Sa, 24.08. 9:40 6 1 - 240° SW
Sa, 24.08. 9:30 6 1 11 250° W
Sa, 24.08. 9:00 6 1 11 300° NW
Sa, 24.08. 8:30 2 1 4 250° W
Sa, 24.08. 8:00 4 1 7 60° NO
Sa, 24.08. 7:30 4 1 7 80° O
Ortszeit Untergrenze Bedeckung Gattung
total tief tief mittel hoch
Sa, 24.08. 8:00 <30 m 8/8 0/8 - - -
Sa, 24.08. 2:00 9000 m 8/8 0/8 - - -
Fr, 23.08. 20:00 240 m 8/8 8/8 - - -
Fr, 23.08. 14:00 270 m 7/8 7/8 - - -
Fr, 23.08. 8:00 30 m 8/8 8/8 - - -
Fr, 23.08. 2:00 - 0/8 0/8 - - -
Do, 22.08. 20:00 210 m 8/8 8/8 - - -
Do, 22.08. 14:00 <30 m 8/8 0/8 - - -
Ortszeit Bedeckungsgrad in Achtel und Wolkenuntergrenze
Sa, 24.08. 10:30 7(<30m) 8(4500m)
Sa, 24.08. 10:20 7(<30m) 8(4500m)
Sa, 24.08. 10:10 7(<30m) 8(4500m)
Sa, 24.08. 10:00 8(<30m)
Sa, 24.08. 9:50 8(<30m)
Sa, 24.08. 9:40 8(<30m)
Sa, 24.08. 9:30 8(<30m)
Sa, 24.08. 9:00 8(<30m)
Sa, 24.08. 8:30 8(<30m)
Sa, 24.08. 8:00 8(<30m)
Sa, 24.08. 7:30 8(<30m)
Ortszeit Stationsdruck (hPa) Tendenz (hPa in 3 Std.)
Sa, 24.08. 8:00 909 - 0,2
Sa, 24.08. 2:00 910 - 1,2
Fr, 23.08. 20:00 912 - 0,1
Fr, 23.08. 14:00 913 - 0,1
Fr, 23.08. 8:00 913 + 0,2
Fr, 23.08. 2:00 913 - 0,7
Do, 22.08. 20:00 914 + 0,5
Do, 22.08. 14:00 913 + 0,3
Ortszeit Stationsdruck (hPa) Tendenz (hPa in 3 Std.)
Sa, 24.08. 10:30 910 + 0,4
Sa, 24.08. 10:20 910 keine Meldung
Sa, 24.08. 10:10 910 keine Meldung
Sa, 24.08. 10:00 910 + 0,3
Sa, 24.08. 9:50 910 keine Meldung
Sa, 24.08. 9:40 910 keine Meldung
Sa, 24.08. 9:30 910 + 0,2
Sa, 24.08. 9:00 909 0,0
Sa, 24.08. 8:30 909 0,0
Sa, 24.08. 8:00 909 - 0,2
Sa, 24.08. 7:30 909 - 0,4
Ortszeit Schneehöhe (cm)
Sa, 24.08. 8:00 -
Sa, 24.08. 2:00 -
Fr, 23.08. 20:00 -
Fr, 23.08. 14:00 -
Fr, 23.08. 8:00 -
Fr, 23.08. 2:00 -
Do, 22.08. 20:00 -
Do, 22.08. 14:00 -
Ortszeit Schneehöhe (cm)
Sa, 24.08. 10:30 -
Sa, 24.08. 10:20 -
Sa, 24.08. 10:10 -
Sa, 24.08. 10:00 -
Sa, 24.08. 9:50 -
Sa, 24.08. 9:40 -
Sa, 24.08. 9:30 -
Sa, 24.08. 9:00 -
Sa, 24.08. 8:30 -
Sa, 24.08. 8:00 -
Sa, 24.08. 7:30 -
Link zu dieser Seite / Seite empfehlen

Das Wetter in ...